createdAt,value
2023-05-06T00:02:44.655Z,83.69
2023-05-06T00:05:50.710Z,82.41
2023-05-06T00:08:57.480Z,80.74
2023-05-06T00:12:03.398Z,81.77
2023-05-06T00:15:14.017Z,78.64
2023-05-06T00:18:28.766Z,77.98
2023-05-06T00:21:41.957Z,76.62
2023-05-06T00:24:48.072Z,81.32
2023-05-06T00:28:01.215Z,82.01
2023-05-06T00:31:10.852Z,82.22
2023-05-06T00:34:17.594Z,80.43
2023-05-06T00:37:23.483Z,77.37
2023-05-06T00:40:30.340Z,78.73
2023-05-06T00:43:36.329Z,78.39
2023-05-06T00:46:46.581Z,78.50
2023-05-06T00:50:00.196Z,78.26
2023-05-06T00:53:24.685Z,80.39
2023-05-06T00:56:31.514Z,80.99
2023-05-06T00:59:40.057Z,82.75
2023-05-06T01:02:49.701Z,83.23
2023-05-06T01:06:22.129Z,79.47
2023-05-06T01:09:41.919Z,77.14
2023-05-06T01:13:01.289Z,78.89
2023-05-06T01:16:12.534Z,75.52
2023-05-06T01:19:46.892Z,76.66
2023-05-06T01:22:59.249Z,75.23
2023-05-06T01:26:18.092Z,76.42
2023-05-06T01:29:24.889Z,75.34
2023-05-06T01:32:47.827Z,74.78
2023-05-06T01:36:23.996Z,75.81
2023-05-06T01:39:52.220Z,74.32
2023-05-06T01:43:08.037Z,76.68
2023-05-06T01:46:21.025Z,77.89
2023-05-06T01:49:30.609Z,76.12
2023-05-06T01:52:36.570Z,75.21
2023-05-06T01:55:43.409Z,77.58
2023-05-06T01:58:51.925Z,77.02
2023-05-06T02:01:59.782Z,80.09
2023-05-06T02:05:08.401Z,76.69
2023-05-06T02:08:22.773Z,75.80
2023-05-06T02:11:29.448Z,76.50
2023-05-06T02:14:46.747Z,77.78
2023-05-06T02:17:52.937Z,84.33
2023-05-06T02:21:01.833Z,84.63
2023-05-06T02:24:08.788Z,82.50
2023-05-06T02:27:16.340Z,81.42
2023-05-06T02:30:24.958Z,83.01
2023-05-06T02:33:31.610Z,80.37
2023-05-06T02:36:37.753Z,80.86
2023-05-06T02:39:46.324Z,81.92
2023-05-06T02:42:52.515Z,83.42
2023-05-06T02:46:01.972Z,80.99
2023-05-06T02:49:12.648Z,83.63
2023-05-06T02:52:21.853Z,82.59
2023-05-06T02:55:28.021Z,79.01
2023-05-06T02:58:36.242Z,81.41
2023-05-06T03:01:51.016Z,79.80
2023-05-06T03:04:57.858Z,80.88
2023-05-06T03:08:03.963Z,80.37
2023-05-06T03:11:14.404Z,81.88
2023-05-06T03:14:20.591Z,82.64
2023-05-06T03:17:30.072Z,83.25
2023-05-06T03:20:38.864Z,84.27
2023-05-06T03:23:47.436Z,81.51
2023-05-06T03:26:54.524Z,84.08
2023-05-06T03:30:08.032Z,80.97
2023-05-06T03:33:17.888Z,79.89
2023-05-06T03:36:25.560Z,80.20
2023-05-06T03:39:33.291Z,78.91
2023-05-06T03:42:41.228Z,81.57
2023-05-06T03:45:48.080Z,81.15
2023-05-06T03:48:58.618Z,78.79
2023-05-06T03:52:05.134Z,79.83
2023-05-06T03:55:19.104Z,80.96
2023-05-06T03:58:25.562Z,85.12
2023-05-06T04:01:32.632Z,83.14
2023-05-06T04:04:43.756Z,93.22
2023-05-06T04:07:51.973Z,92.43
2023-05-06T04:10:58.541Z,94.75
2023-05-06T04:14:08.355Z,96.40
2023-05-06T04:17:15.770Z,102.48
2023-05-06T04:20:26.626Z,99.37
2023-05-06T04:23:33.149Z,102.79
2023-05-06T04:26:41.101Z,102.66
2023-05-06T04:29:47.476Z,100.77
2023-05-06T04:32:56.054Z,92.42
2023-05-06T04:36:05.014Z,92.61
2023-05-06T04:39:13.392Z,84.05
2023-05-06T04:42:20.376Z,83.12
2023-05-06T04:45:40.897Z,82.00
2023-05-06T04:48:47.112Z,82.83
2023-05-06T04:52:05.143Z,81.31
2023-05-06T04:55:13.394Z,81.09
2023-05-06T04:58:26.414Z,78.64
2023-05-06T05:01:33.732Z,80.86
2023-05-06T05:04:47.519Z,91.08
2023-05-06T05:08:09.062Z,89.37
2023-05-06T05:11:36.123Z,92.91
2023-05-06T05:14:43.013Z,92.78
2023-05-06T05:17:52.725Z,92.36
2023-05-06T05:21:11.987Z,94.12
2023-05-06T05:24:22.091Z,94.72
2023-05-06T05:27:28.146Z,93.71
2023-05-06T05:30:37.304Z,97.74
2023-05-06T05:33:44.632Z,98.16
2023-05-06T05:36:56.265Z,97.20
2023-05-06T05:40:08.328Z,97.04
2023-05-06T05:43:18.053Z,99.81
2023-05-06T05:46:24.305Z,96.98
2023-05-06T05:49:32.079Z,93.94
2023-05-06T05:52:38.162Z,87.65
2023-05-06T05:55:47.990Z,89.97
2023-05-06T05:58:55.989Z,93.59
2023-05-06T06:02:10.585Z,92.83
2023-05-06T06:05:17.009Z,92.87
2023-05-06T06:08:24.345Z,91.15
2023-05-06T06:11:34.277Z,88.95
2023-05-06T06:14:42.136Z,88.76
2023-05-06T06:17:48.764Z,89.64
2023-05-06T06:20:57.381Z,87.45
2023-05-06T06:24:03.630Z,84.89
2023-05-06T06:27:21.947Z,83.36
2023-05-06T06:30:28.827Z,82.65
2023-05-06T06:33:38.418Z,78.40
2023-05-06T06:36:46.415Z,81.77
2023-05-06T06:39:53.309Z,82.35
2023-05-06T06:43:08.140Z,80.31
2023-05-06T06:46:36.618Z,83.32
2023-05-06T06:49:42.752Z,80.33
2023-05-06T06:52:49.724Z,76.19
2023-05-06T06:55:56.914Z,75.84
2023-05-06T06:59:06.351Z,75.97
2023-05-06T07:02:12.378Z,74.69
2023-05-06T07:05:19.614Z,77.45
2023-05-06T07:08:25.740Z,76.83
2023-05-06T07:11:32.627Z,77.76
2023-05-06T07:14:41.870Z,73.44
2023-05-06T07:17:48.933Z,71.29
2023-05-06T07:20:55.017Z,77.93
2023-05-06T07:24:01.864Z,76.32
2023-05-06T07:27:07.789Z,75.65
2023-05-06T07:30:21.685Z,79.48
2023-05-06T07:33:29.297Z,83.15
2023-05-06T07:36:47.263Z,79.90
2023-05-06T07:39:53.521Z,77.17
2023-05-06T07:43:00.376Z,77.56
2023-05-06T07:46:09.261Z,77.90
2023-05-06T07:49:25.739Z,77.95
2023-05-06T07:52:31.831Z,80.16
2023-05-06T07:55:38.948Z,74.77
2023-05-06T07:58:44.939Z,76.04
2023-05-06T08:01:54.512Z,80.22
2023-05-06T08:05:00.672Z,81.39
2023-05-06T08:08:08.420Z,75.95
2023-05-06T08:11:14.647Z,75.23
2023-05-06T08:14:21.756Z,78.73
2023-05-06T08:17:33.043Z,75.64
2023-05-06T08:20:42.245Z,80.49
2023-05-06T08:23:48.272Z,79.13
2023-05-06T08:26:55.255Z,80.75
2023-05-06T08:30:01.391Z,77.66
2023-05-06T08:33:11.148Z,81.96
2023-05-06T08:36:17.045Z,78.81
2023-05-06T08:39:24.088Z,83.90
2023-05-06T08:42:31.458Z,82.30
2023-05-06T08:45:40.652Z,80.24
2023-05-06T08:48:49.393Z,84.91
2023-05-06T08:51:57.148Z,81.30
2023-05-06T08:55:08.432Z,81.02
2023-05-06T08:58:20.378Z,80.51
2023-05-06T09:01:26.914Z,82.83
2023-05-06T09:04:36.732Z,85.20
2023-05-06T09:07:42.897Z,87.25
2023-05-06T09:10:51.094Z,95.89
2023-05-06T09:14:14.198Z,77.72
2023-05-06T09:17:28.479Z,83.81
2023-05-06T09:20:45.126Z,86.78
2023-05-06T09:23:52.133Z,88.70
2023-05-06T09:27:01.895Z,91.33
2023-05-06T09:30:13.181Z,91.63
2023-05-06T09:33:19.702Z,93.67
2023-05-06T09:36:31.832Z,95.79
2023-05-06T09:39:37.990Z,105.23
2023-05-06T09:42:47.877Z,103.47
2023-05-06T09:45:56.568Z,99.26
2023-05-06T09:49:04.367Z,97.57
2023-05-06T09:52:16.440Z,117.20
2023-05-06T09:55:27.058Z,156.58
2023-05-06T09:58:36.096Z,166.98
2023-05-06T10:01:44.035Z,155.42
2023-05-06T10:05:11.569Z,137.11
2023-05-06T10:08:23.167Z,146.56
2023-05-06T10:11:32.409Z,133.44
2023-05-06T10:14:39.714Z,131.20
2023-05-06T10:17:49.261Z,148.73
2023-05-06T10:20:57.262Z,144.43
2023-05-06T10:24:14.045Z,156.15
2023-05-06T10:27:27.628Z,159.00
2023-05-06T10:30:44.074Z,146.44
2023-05-06T10:33:56.720Z,153.24
2023-05-06T10:37:04.976Z,170.50
2023-05-06T10:40:19.533Z,188.04
2023-05-06T10:43:32.224Z,175.95
2023-05-06T10:47:03.689Z,176.74
2023-05-06T10:50:26.023Z,189.07
2023-05-06T10:54:06.128Z,196.93
2023-05-06T10:57:15.183Z,194.79
2023-05-06T11:00:22.749Z,199.83
2023-05-06T11:03:28.971Z,216.12
2023-05-06T11:06:43.064Z,217.45
2023-05-06T11:10:00.593Z,201.80
2023-05-06T11:13:28.027Z,201.69
2023-05-06T11:16:52.070Z,191.62
2023-05-06T11:20:23.930Z,187.49
2023-05-06T11:24:13.770Z,197.48
2023-05-06T11:27:26.390Z,201.18
2023-05-06T11:30:34.962Z,200.32
2023-05-06T11:33:50.642Z,196.83
2023-05-06T11:37:05.292Z,205.33
2023-05-06T11:40:18.930Z,190.16
2023-05-06T11:43:24.883Z,198.25
2023-05-06T11:46:36.913Z,230.45
2023-05-06T11:49:45.787Z,205.75
2023-05-06T11:52:52.651Z,201.74
2023-05-06T11:55:58.796Z,218.31
2023-05-06T11:59:05.596Z,228.50
2023-05-06T12:02:18.098Z,278.67
2023-05-06T12:05:29.701Z,228.02
2023-05-06T12:08:39.064Z,199.66
2023-05-06T12:11:48.115Z,206.79
2023-05-06T12:14:56.964Z,213.63
2023-05-06T12:18:08.794Z,214.87
2023-05-06T12:21:14.967Z,221.94
2023-05-06T12:24:31.947Z,233.08
2023-05-06T12:27:39.887Z,262.56
2023-05-06T12:30:47.813Z,310.48
2023-05-06T12:34:01.063Z,323.12
2023-05-06T12:37:11.738Z,368.38
2023-05-06T12:40:22.990Z,383.13
2023-05-06T12:43:34.101Z,358.74
2023-05-06T12:46:53.954Z,394.04
2023-05-06T12:50:03.415Z,408.88
2023-05-06T12:53:13.602Z,364.87
2023-05-06T12:56:20.701Z,355.40
2023-05-06T12:59:29.312Z,318.33
2023-05-06T13:02:38.236Z,283.06
2023-05-06T13:05:52.139Z,261.39
2023-05-06T13:08:59.402Z,258.65
2023-05-06T13:12:05.870Z,241.24
2023-05-06T13:15:14.062Z,249.76
2023-05-06T13:18:20.112Z,261.68
2023-05-06T13:21:31.953Z,277.53
2023-05-06T13:24:37.912Z,309.47
2023-05-06T13:27:44.768Z,343.67
2023-05-06T13:30:50.811Z,353.74
2023-05-06T13:33:58.149Z,359.87
2023-05-06T13:37:08.142Z,354.32
2023-05-06T13:40:16.671Z,335.96
2023-05-06T13:43:25.051Z,333.34
2023-05-06T13:46:34.552Z,334.85
2023-05-06T13:49:42.395Z,363.85
2023-05-06T13:52:51.802Z,369.25
2023-05-06T13:55:57.837Z,378.72
2023-05-06T13:59:08.421Z,359.87
2023-05-06T14:02:16.698Z,355.26
2023-05-06T14:05:23.620Z,355.16
2023-05-06T14:08:33.263Z,349.58
2023-05-06T14:11:40.204Z,334.54
2023-05-06T14:14:46.160Z,304.29
2023-05-06T14:17:53.167Z,303.82
2023-05-06T14:20:59.434Z,281.30
2023-05-06T14:24:10.557Z,273.22
2023-05-06T14:27:21.741Z,265.29
2023-05-06T14:30:28.832Z,259.26
2023-05-06T14:33:34.945Z,244.29
2023-05-06T14:36:41.666Z,260.47
2023-05-06T14:39:50.276Z,257.04
2023-05-06T14:42:57.033Z,247.24
2023-05-06T14:46:03.161Z,239.83
2023-05-06T14:49:09.926Z,241.83
2023-05-06T14:52:16.866Z,221.82
2023-05-06T14:55:26.443Z,218.07
2023-05-06T14:58:32.353Z,198.45
2023-05-06T15:01:39.178Z,214.81
2023-05-06T15:04:46.244Z,217.32
2023-05-06T15:07:53.093Z,226.43
2023-05-06T15:11:05.094Z,223.04
2023-05-06T15:14:11.904Z,214.69
2023-05-06T15:17:18.248Z,226.16
2023-05-06T15:20:24.934Z,213.32
2023-05-06T15:23:37.311Z,218.51
2023-05-06T15:26:50.537Z,216.19
2023-05-06T15:30:08.692Z,230.62
2023-05-06T15:33:18.148Z,224.96
2023-05-06T15:36:24.046Z,224.61
2023-05-06T15:39:31.043Z,230.28
2023-05-06T15:42:41.665Z,217.47
2023-05-06T15:45:50.834Z,220.20
2023-05-06T15:49:22.448Z,221.69
2023-05-06T15:52:28.929Z,231.83
2023-05-06T15:55:43.728Z,230.85
2023-05-06T15:58:53.738Z,241.51
2023-05-06T16:05:18.347Z,237.39
2023-05-06T16:08:31.920Z,231.88
2023-05-06T16:11:38.608Z,236.95
2023-05-06T16:14:47.922Z,249.88
2023-05-06T16:17:54.719Z,260.54
2023-05-06T16:21:01.588Z,261.64
2023-05-06T16:24:11.718Z,287.41
2023-05-06T16:27:20.515Z,271.05
2023-05-06T16:30:31.232Z,282.47
2023-05-06T16:33:37.478Z,267.32
2023-05-06T16:36:44.652Z,255.36
2023-05-06T16:39:56.092Z,257.62
2023-05-06T16:43:03.019Z,267.80
2023-05-06T16:46:11.580Z,265.03
2023-05-06T16:49:20.636Z,269.51
2023-05-06T16:52:26.841Z,265.88
2023-05-06T16:55:33.738Z,280.18
2023-05-06T16:58:39.760Z,285.60
2023-05-06T17:01:49.193Z,288.86
2023-05-06T17:04:55.341Z,294.80
2023-05-06T17:08:03.966Z,303.65
2023-05-06T17:11:11.768Z,302.51
2023-05-06T17:14:20.165Z,284.57
2023-05-06T17:17:29.105Z,268.57
2023-05-06T17:20:51.404Z,265.39
2023-05-06T17:24:01.777Z,269.71
2023-05-06T17:27:08.712Z,276.43
2023-05-06T17:30:15.556Z,252.66
2023-05-06T17:33:25.186Z,265.34
2023-05-06T17:36:31.537Z,247.34
2023-05-06T17:39:38.776Z,248.67
2023-05-06T17:42:46.418Z,244.31
2023-05-06T17:45:53.360Z,252.81
2023-05-06T17:49:02.080Z,253.19
2023-05-06T17:52:11.784Z,248.30
2023-05-06T17:55:18.090Z,248.38
2023-05-06T17:58:24.968Z,260.86
2023-05-06T18:01:35.653Z,260.46
2023-05-06T18:04:47.721Z,267.40
2023-05-06T18:07:53.717Z,259.07
2023-05-06T18:11:00.766Z,264.64
2023-05-06T18:14:15.150Z,258.26
2023-05-06T18:17:22.150Z,266.38
2023-05-06T18:20:30.925Z,264.30
2023-05-06T18:23:37.758Z,250.06
2023-05-06T18:26:45.832Z,263.51
2023-05-06T18:29:53.237Z,277.68
2023-05-06T18:32:59.331Z,266.18
2023-05-06T18:36:17.676Z,278.07
2023-05-06T18:39:26.989Z,278.93
2023-05-06T18:42:35.306Z,287.21
2023-05-06T18:45:41.701Z,294.87
2023-05-06T18:48:48.666Z,294.27
2023-05-06T18:51:57.751Z,298.14
2023-05-06T18:55:04.966Z,292.26
2023-05-06T18:58:14.334Z,284.75
2023-05-06T19:01:40.441Z,806.62
2023-05-06T19:04:47.886Z,1154.11
2023-05-06T19:08:02.077Z,441.65
2023-05-06T19:11:19.449Z,328.20
2023-05-06T19:14:26.339Z,306.40
2023-05-06T19:17:32.286Z,281.92
2023-05-06T19:20:39.604Z,297.07
2023-05-06T19:23:49.517Z,297.88
2023-05-06T19:26:56.343Z,280.82
2023-05-06T19:30:17.496Z,285.72
2023-05-06T19:33:24.530Z,292.38
2023-05-06T19:36:50.445Z,277.27
2023-05-06T19:40:04.156Z,284.04
2023-05-06T19:43:10.121Z,282.83
2023-05-06T19:46:20.326Z,294.45
2023-05-06T19:49:26.701Z,272.51
2023-05-06T19:52:34.904Z,262.77
2023-05-06T19:55:48.722Z,247.22
2023-05-06T19:58:58.069Z,261.64
2023-05-06T20:02:10.530Z,258.43
2023-05-06T20:05:17.591Z,269.13
2023-05-06T20:08:24.920Z,282.90
2023-05-06T20:11:34.991Z,256.50
2023-05-06T20:14:54.402Z,244.21
2023-05-06T20:18:01.819Z,233.87
2023-05-06T20:21:07.804Z,221.27
2023-05-06T20:24:14.732Z,244.70
2023-05-06T20:27:23.776Z,234.46
2023-05-06T20:30:30.841Z,242.40
2023-05-06T20:33:37.024Z,228.14
2023-05-06T20:36:44.924Z,234.08
2023-05-06T20:39:50.977Z,246.75
2023-05-06T20:43:00.444Z,242.53
2023-05-06T20:46:07.136Z,230.21
2023-05-06T20:49:14.129Z,241.60
2023-05-06T20:52:21.846Z,238.50
2023-05-06T20:55:30.743Z,233.92
2023-05-06T20:58:39.302Z,231.19
2023-05-06T21:01:46.226Z,234.69
2023-05-06T21:04:52.522Z,225.26
2023-05-06T21:07:59.371Z,239.06
2023-05-06T21:11:15.490Z,223.67
2023-05-06T21:14:25.568Z,225.82
2023-05-06T21:17:32.266Z,227.32
2023-05-06T21:20:39.292Z,226.18
2023-05-06T21:23:45.291Z,223.37
2023-05-06T21:26:52.208Z,218.20
2023-05-06T21:30:03.916Z,208.62
2023-05-06T21:33:11.530Z,221.20
2023-05-06T21:36:17.755Z,215.93
2023-05-06T21:39:32.355Z,226.18
2023-05-06T21:42:38.289Z,208.36
2023-05-06T21:45:48.364Z,216.93
2023-05-06T21:48:54.278Z,209.36
2023-05-06T21:52:01.074Z,215.17
2023-05-06T21:55:08.725Z,205.81
2023-05-06T21:58:16.505Z,202.64
2023-05-06T22:01:26.452Z,195.93
2023-05-06T22:04:36.526Z,201.41
2023-05-06T22:07:42.500Z,191.84
2023-05-06T22:10:49.446Z,202.09
2023-05-06T22:13:55.422Z,194.25
2023-05-06T22:17:05.212Z,202.26
2023-05-06T22:20:16.379Z,211.08
2023-05-06T22:23:24.333Z,204.15
2023-05-06T22:26:36.508Z,196.88
2023-05-06T22:29:43.450Z,216.63
2023-05-06T22:32:52.186Z,217.02
2023-05-06T22:35:59.162Z,219.48
2023-05-06T22:39:12.449Z,228.75
2023-05-06T22:42:19.227Z,219.54
2023-05-06T22:45:33.533Z,231.62
2023-05-06T22:48:45.031Z,213.51
2023-05-06T22:51:51.293Z,210.92
2023-05-06T22:54:58.073Z,219.08
2023-05-06T22:58:04.109Z,210.15
2023-05-06T23:01:11.074Z,208.56
2023-05-06T23:04:19.678Z,211.89
2023-05-06T23:07:26.719Z,210.09
2023-05-06T23:10:32.722Z,211.49
2023-05-06T23:13:39.428Z,221.23
2023-05-06T23:16:49.925Z,209.95
2023-05-06T23:20:06.244Z,199.77
2023-05-06T23:23:18.216Z,201.23
2023-05-06T23:26:25.145Z,207.67
2023-05-06T23:29:31.222Z,202.97
2023-05-06T23:32:38.186Z,212.10
2023-05-06T23:35:47.933Z,207.24
2023-05-06T23:38:54.686Z,217.36
2023-05-06T23:42:00.952Z,194.34
2023-05-06T23:45:09.339Z,200.53
2023-05-06T23:48:16.522Z,199.14
2023-05-06T23:51:26.866Z,197.96
2023-05-06T23:54:33.139Z,184.62
2023-05-06T23:57:40.115Z,188.37
